createdAt,value
2022-12-09T00:00:48.280Z,90.55
2022-12-09T00:03:52.678Z,90.10
2022-12-09T00:06:57.386Z,90.21
2022-12-09T00:10:01.621Z,92.27
2022-12-09T00:13:07.247Z,91.07
2022-12-09T00:16:14.130Z,92.48
2022-12-09T00:19:18.426Z,90.81
2022-12-09T00:22:22.909Z,92.30
2022-12-09T00:25:27.313Z,91.90
2022-12-09T00:28:32.955Z,90.74
2022-12-09T00:31:39.273Z,90.06
2022-12-09T00:34:43.895Z,89.46
2022-12-09T00:37:47.943Z,89.74
2022-12-09T00:40:52.993Z,89.40
2022-12-09T00:43:59.369Z,89.42
2022-12-09T00:47:03.789Z,88.74
2022-12-09T00:50:09.411Z,89.02
2022-12-09T00:53:13.817Z,89.89
2022-12-09T00:56:18.005Z,91.35
2022-12-09T00:59:23.617Z,92.55
2022-12-09T01:02:27.918Z,93.92
2022-12-09T01:05:36.345Z,91.78
2022-12-09T01:08:42.842Z,92.45
2022-12-09T01:11:47.454Z,91.30
2022-12-09T01:14:53.396Z,91.59
2022-12-09T01:17:58.281Z,93.93
2022-12-09T01:21:02.556Z,91.30
2022-12-09T01:24:10.153Z,91.11
2022-12-09T01:27:14.500Z,90.52
2022-12-09T01:30:21.168Z,89.63
2022-12-09T01:33:25.693Z,90.35
2022-12-09T01:36:31.747Z,90.77
2022-12-09T01:39:36.341Z,91.12
2022-12-09T01:42:40.907Z,91.18
2022-12-09T01:45:46.712Z,93.42
2022-12-09T01:48:50.991Z,93.27
2022-12-09T01:52:02.915Z,91.76
2022-12-09T01:55:08.638Z,92.30
2022-12-09T01:58:14.139Z,91.37
2022-12-09T02:01:20.367Z,90.09
2022-12-09T02:04:25.621Z,91.58
2022-12-09T02:07:30.247Z,90.65
2022-12-09T02:10:40.293Z,90.40
2022-12-09T02:13:57.293Z,90.19
2022-12-09T02:17:27.570Z,91.94
2022-12-09T02:20:41.133Z,91.04
2022-12-09T02:23:52.392Z,90.73
2022-12-09T02:27:02.783Z,90.00
2022-12-09T02:30:14.354Z,89.66
2022-12-09T02:33:33.395Z,89.22
2022-12-09T02:36:51.679Z,89.17
2022-12-09T02:40:00.769Z,89.37
2022-12-09T02:43:09.607Z,89.35
2022-12-09T02:46:16.716Z,90.36
2022-12-09T02:49:24.034Z,89.60
2022-12-09T02:52:30.930Z,89.54
2022-12-09T02:55:36.860Z,90.65
2022-12-09T02:58:40.902Z,90.24
2022-12-09T03:01:51.447Z,89.83
2022-12-09T03:05:10.574Z,91.89
2022-12-09T03:08:26.049Z,91.98
2022-12-09T03:11:33.735Z,91.24
2022-12-09T03:14:43.806Z,90.18
2022-12-09T03:17:48.691Z,90.39
2022-12-09T03:20:53.680Z,90.34
2022-12-09T03:24:02.490Z,92.09
2022-12-09T03:27:11.107Z,91.44
2022-12-09T03:30:16.991Z,90.68
2022-12-09T03:33:24.505Z,91.01
2022-12-09T03:36:35.913Z,91.42
2022-12-09T03:39:43.165Z,90.83
2022-12-09T03:42:54.996Z,91.17
2022-12-09T03:46:00.044Z,90.45
2022-12-09T03:49:04.444Z,90.91
2022-12-09T03:52:15.606Z,91.60
2022-12-09T03:55:27.158Z,91.39
2022-12-09T03:58:35.272Z,91.40
2022-12-09T04:01:41.836Z,91.48
2022-12-09T04:04:46.292Z,90.90
2022-12-09T04:07:51.105Z,91.51
2022-12-09T04:10:57.437Z,91.41
2022-12-09T04:14:01.780Z,92.06
2022-12-09T04:17:06.256Z,93.24
2022-12-09T04:20:11.965Z,92.69
2022-12-09T04:23:16.372Z,91.50
2022-12-09T04:26:24.786Z,90.24
2022-12-09T04:29:29.017Z,90.73
2022-12-09T04:32:33.849Z,91.42
2022-12-09T04:35:38.167Z,90.05
2022-12-09T04:38:43.052Z,91.48
2022-12-09T04:41:48.993Z,89.85
2022-12-09T04:44:53.297Z,89.17
2022-12-09T04:47:57.550Z,88.94
2022-12-09T04:51:02.090Z,89.31
2022-12-09T04:54:06.445Z,88.87
2022-12-09T04:57:12.583Z,89.68
2022-12-09T05:00:18.034Z,90.16
2022-12-09T05:03:22.621Z,89.99
2022-12-09T05:06:27.526Z,89.67
2022-12-09T05:09:31.879Z,89.82
2022-12-09T05:12:38.259Z,89.60
2022-12-09T05:15:42.875Z,89.29
2022-12-09T05:18:48.154Z,89.12
2022-12-09T05:21:53.006Z,89.31
2022-12-09T05:24:57.206Z,89.49
2022-12-09T05:28:04.522Z,88.75
2022-12-09T05:31:10.732Z,88.73
2022-12-09T05:34:15.397Z,89.23
2022-12-09T05:37:20.089Z,89.37
2022-12-09T05:40:24.778Z,89.83
2022-12-09T05:43:30.681Z,90.81
2022-12-09T05:46:35.310Z,89.89
2022-12-09T05:49:40.718Z,90.20
2022-12-09T05:52:44.990Z,92.56
2022-12-09T05:55:49.751Z,92.24
2022-12-09T05:58:56.736Z,93.34
2022-12-09T06:02:05.115Z,92.51
2022-12-09T06:05:13.914Z,91.70
2022-12-09T06:08:18.815Z,90.58
2022-12-09T06:11:24.058Z,91.42
2022-12-09T06:14:30.337Z,92.35
2022-12-09T06:17:35.031Z,93.13
2022-12-09T06:20:41.672Z,91.12
2022-12-09T06:23:46.350Z,91.71
2022-12-09T06:26:51.106Z,93.35
2022-12-09T06:29:57.083Z,92.35
2022-12-09T06:33:02.360Z,90.98
2022-12-09T06:36:08.457Z,91.05
2022-12-09T06:39:13.238Z,90.76
2022-12-09T06:42:17.947Z,90.06
2022-12-09T06:45:24.201Z,92.91
2022-12-09T06:48:28.683Z,93.26
2022-12-09T06:51:33.878Z,91.88
2022-12-09T06:54:38.336Z,91.92
2022-12-09T06:57:42.549Z,93.47
2022-12-09T07:00:48.897Z,95.29
2022-12-09T07:03:55.710Z,93.47
2022-12-09T07:07:00.651Z,94.06
2022-12-09T07:10:06.763Z,93.70
2022-12-09T07:13:11.523Z,94.20
2022-12-09T07:16:17.819Z,94.93
2022-12-09T07:19:24.750Z,92.29
2022-12-09T07:22:29.176Z,92.54
2022-12-09T07:25:33.789Z,91.85
2022-12-09T07:28:41.393Z,90.30
2022-12-09T07:31:47.906Z,89.28
2022-12-09T07:34:52.742Z,89.55
2022-12-09T07:37:57.937Z,90.36
2022-12-09T07:41:07.626Z,90.14
2022-12-09T07:44:12.953Z,89.24
2022-12-09T07:47:18.892Z,89.03
2022-12-09T07:50:23.423Z,88.57
2022-12-09T07:53:27.850Z,89.04
2022-12-09T07:56:32.260Z,90.25
2022-12-09T07:59:39.725Z,90.52
2022-12-09T08:02:45.527Z,89.48
2022-12-09T08:05:53.760Z,91.92
2022-12-09T08:09:01.034Z,89.77
2022-12-09T08:12:06.322Z,89.61
2022-12-09T08:15:12.648Z,88.89
2022-12-09T08:18:18.912Z,88.46
2022-12-09T08:21:25.627Z,88.52
2022-12-09T08:24:30.108Z,89.08
2022-12-09T08:27:34.589Z,90.26
2022-12-09T08:30:39.426Z,89.63
2022-12-09T08:33:45.918Z,89.09
2022-12-09T08:36:50.217Z,88.14
2022-12-09T08:39:54.683Z,87.36
2022-12-09T08:42:59.329Z,88.40
2022-12-09T08:46:04.059Z,88.31
2022-12-09T08:49:11.030Z,88.95
2022-12-09T08:52:15.731Z,88.24
2022-12-09T08:55:20.312Z,87.81
2022-12-09T08:58:25.070Z,87.45
2022-12-09T09:01:36.029Z,87.61
2022-12-09T09:04:42.481Z,88.52
2022-12-09T09:07:47.082Z,89.67
2022-12-09T09:10:52.012Z,89.41
2022-12-09T09:13:56.954Z,89.99
2022-12-09T09:17:01.922Z,90.77
2022-12-09T09:20:09.649Z,91.86
2022-12-09T09:23:14.453Z,91.36
2022-12-09T09:26:20.846Z,92.08
2022-12-09T09:29:25.732Z,92.58
2022-12-09T09:32:30.445Z,91.16
2022-12-09T09:35:36.628Z,89.77
2022-12-09T09:38:41.721Z,92.03
2022-12-09T09:41:52.632Z,92.25
2022-12-09T09:44:57.660Z,89.39
2022-12-09T09:48:04.925Z,90.41
2022-12-09T09:51:17.140Z,88.41
2022-12-09T09:54:21.518Z,87.53
2022-12-09T09:57:31.396Z,88.62
2022-12-09T10:00:41.480Z,86.95
2022-12-09T10:03:55.461Z,86.97
2022-12-09T10:07:09.499Z,86.71
2022-12-09T10:10:25.017Z,86.22
2022-12-09T10:13:45.265Z,87.41
2022-12-09T10:16:57.320Z,86.33
2022-12-09T10:20:08.401Z,85.60
2022-12-09T10:23:16.653Z,85.83
2022-12-09T10:26:28.290Z,85.01
2022-12-09T10:29:52.145Z,85.02
2022-12-09T10:32:56.631Z,84.59
2022-12-09T10:36:01.481Z,85.24
2022-12-09T10:39:07.984Z,85.43
2022-12-09T10:42:35.062Z,84.48
2022-12-09T10:49:22.888Z,85.50
2022-12-09T10:52:31.780Z,86.26
2022-12-09T10:55:39.721Z,87.73
2022-12-09T10:58:44.082Z,88.38
2022-12-09T11:01:53.718Z,87.62
2022-12-09T11:04:58.413Z,87.12
2022-12-09T11:08:03.343Z,86.98
2022-12-09T11:11:10.299Z,86.11
2022-12-09T11:14:27.222Z,86.12
2022-12-09T11:17:34.797Z,86.17
2022-12-09T11:20:41.198Z,87.03
2022-12-09T11:24:02.432Z,87.33
2022-12-09T11:27:26.828Z,87.59
2022-12-09T11:30:34.852Z,87.84
2022-12-09T11:33:44.147Z,87.25
2022-12-09T11:36:53.042Z,87.30
2022-12-09T11:39:57.334Z,88.61
2022-12-09T11:43:03.962Z,88.15
2022-12-09T11:46:22.082Z,89.89
2022-12-09T11:49:28.206Z,88.63
2022-12-09T11:52:33.049Z,88.24
2022-12-09T11:55:43.486Z,87.80
2022-12-09T11:58:54.702Z,87.42
2022-12-09T12:02:19.096Z,88.99
2022-12-09T12:05:26.093Z,90.14
2022-12-09T12:08:36.943Z,90.47
2022-12-09T12:11:48.437Z,90.26
2022-12-09T12:14:55.174Z,89.46
2022-12-09T12:18:05.522Z,89.39
2022-12-09T12:21:46.824Z,88.33
2022-12-09T12:25:18.036Z,88.76
2022-12-09T12:29:00.106Z,89.45
2022-12-09T12:32:23.920Z,89.51
2022-12-09T12:35:49.706Z,89.10
2022-12-09T12:39:06.688Z,89.62
2022-12-09T12:42:34.455Z,90.77
2022-12-09T12:46:04.352Z,89.29
2022-12-09T12:49:33.395Z,89.59
2022-12-09T12:53:01.341Z,90.68
2022-12-09T12:56:09.364Z,89.94
2022-12-09T12:59:23.452Z,88.54
2022-12-09T13:02:42.678Z,89.17
2022-12-09T13:05:51.683Z,89.54
2022-12-09T13:09:03.339Z,89.35
2022-12-09T13:12:13.946Z,89.11
2022-12-09T13:15:20.815Z,89.11
2022-12-09T13:18:28.313Z,88.86
2022-12-09T13:21:34.272Z,89.09
2022-12-09T13:24:44.270Z,88.24
2022-12-09T13:27:56.003Z,88.39
2022-12-09T13:31:02.391Z,89.23
2022-12-09T13:34:21.443Z,89.59
2022-12-09T13:37:57.872Z,90.27
2022-12-09T13:41:02.132Z,90.51
2022-12-09T13:44:11.530Z,91.11
2022-12-09T13:47:31.307Z,92.57
2022-12-09T13:50:40.910Z,92.16
2022-12-09T13:54:04.210Z,91.95
2022-12-09T13:57:20.323Z,93.06
2022-12-09T14:00:24.527Z,94.50
2022-12-09T14:03:33.269Z,93.74
2022-12-09T14:06:43.202Z,92.55
2022-12-09T14:09:52.612Z,91.71
2022-12-09T14:13:05.872Z,92.63
2022-12-09T14:16:33.583Z,93.10
2022-12-09T14:19:56.696Z,94.17
2022-12-09T14:23:21.756Z,93.66
2022-12-09T14:26:37.604Z,92.24
2022-12-09T14:29:57.243Z,91.96
2022-12-09T14:33:02.916Z,92.45
2022-12-09T14:36:21.513Z,92.83
2022-12-09T14:39:31.021Z,93.38
2022-12-09T14:42:46.526Z,93.98
2022-12-09T14:45:56.103Z,92.74
2022-12-09T14:49:03.374Z,92.58
2022-12-09T14:52:25.318Z,93.60
2022-12-09T14:55:31.485Z,94.08
2022-12-09T14:58:37.263Z,94.08
2022-12-09T15:01:52.880Z,94.19
2022-12-09T15:04:57.972Z,95.29
2022-12-09T15:08:02.322Z,95.69
2022-12-09T15:11:10.844Z,95.24
2022-12-09T15:14:28.836Z,95.91
2022-12-09T15:17:39.444Z,95.83
2022-12-09T15:20:44.343Z,94.63
2022-12-09T15:23:48.732Z,93.52
2022-12-09T15:27:00.806Z,94.35
2022-12-09T15:30:23.824Z,93.97
2022-12-09T15:33:30.828Z,93.02
2022-12-09T15:36:39.334Z,93.41
2022-12-09T15:39:50.451Z,95.58
2022-12-09T15:42:57.866Z,96.69
2022-12-09T15:46:04.597Z,95.25
2022-12-09T15:49:11.247Z,94.08
2022-12-09T15:52:18.380Z,94.25
2022-12-09T15:55:30.694Z,93.94
2022-12-09T15:58:38.204Z,92.56
2022-12-09T16:01:50.132Z,93.09
2022-12-09T16:04:58.027Z,92.76
2022-12-09T16:08:03.584Z,93.06
2022-12-09T16:11:08.198Z,93.23
2022-12-09T16:14:13.128Z,94.00
2022-12-09T16:17:24.779Z,93.70
2022-12-09T16:20:35.175Z,93.46
2022-12-09T16:23:39.537Z,93.33
2022-12-09T16:26:48.557Z,93.15
2022-12-09T16:29:54.878Z,92.79
2022-12-09T16:33:01.814Z,93.30
2022-12-09T16:36:08.205Z,93.28
2022-12-09T16:39:34.870Z,92.09
2022-12-09T16:42:40.953Z,92.43
2022-12-09T16:45:46.900Z,92.42
2022-12-09T16:48:52.657Z,92.23
2022-12-09T16:51:56.743Z,93.50
2022-12-09T16:55:01.033Z,92.67
2022-12-09T16:58:05.297Z,93.05
2022-12-09T17:01:14.164Z,92.63
2022-12-09T17:04:22.559Z,96.64
2022-12-09T17:07:26.744Z,94.57
2022-12-09T17:10:30.757Z,94.24
2022-12-09T17:13:35.013Z,94.29
2022-12-09T17:16:40.598Z,93.12
2022-12-09T17:19:46.352Z,92.71
2022-12-09T17:22:50.764Z,93.80
2022-12-09T17:25:58.551Z,93.02
2022-12-09T17:29:02.707Z,91.81
2022-12-09T17:32:07.585Z,92.92
2022-12-09T17:35:16.358Z,92.24
2022-12-09T17:38:20.936Z,92.90
2022-12-09T17:41:25.163Z,92.69
2022-12-09T17:44:29.808Z,92.32
2022-12-09T17:47:33.995Z,91.84
2022-12-09T17:50:41.049Z,91.77
2022-12-09T17:53:45.823Z,90.99
2022-12-09T17:56:50.081Z,90.75
2022-12-09T17:59:54.237Z,90.81
2022-12-09T18:02:58.484Z,90.42
2022-12-09T18:06:04.203Z,90.92
2022-12-09T18:09:10.937Z,93.15
2022-12-09T18:12:15.416Z,91.66
2022-12-09T18:15:19.596Z,90.97
2022-12-09T18:18:23.827Z,91.81
2022-12-09T18:21:29.553Z,92.37
2022-12-09T18:24:33.797Z,93.02
2022-12-09T18:27:37.984Z,92.90
2022-12-09T18:30:42.189Z,92.86
2022-12-09T18:33:46.873Z,92.65
2022-12-09T18:36:52.964Z,92.39
2022-12-09T18:39:57.269Z,92.41
2022-12-09T18:43:01.474Z,93.96
2022-12-09T18:46:08.031Z,93.11
2022-12-09T18:49:14.686Z,95.32
2022-12-09T18:52:20.367Z,95.67
2022-12-09T18:55:24.564Z,95.38
2022-12-09T18:58:57.551Z,95.17
2022-12-09T19:01:54.716Z,94.69
2022-12-09T19:04:59.403Z,95.75
2022-12-09T19:08:05.294Z,96.66
2022-12-09T19:11:09.513Z,97.09
2022-12-09T19:14:14.583Z,97.72
2022-12-09T19:17:19.293Z,97.20
2022-12-09T19:20:23.544Z,96.43
2022-12-09T19:23:29.405Z,98.54
2022-12-09T19:26:35.513Z,95.95
2022-12-09T19:29:39.946Z,96.02
2022-12-09T19:32:59.265Z,95.94
2022-12-09T19:36:05.106Z,95.50
2022-12-09T19:39:11.744Z,95.11
2022-12-09T19:42:16.172Z,96.56
2022-12-09T19:45:20.286Z,95.15
2022-12-09T19:48:24.447Z,94.98
2022-12-09T19:51:29.235Z,95.32
2022-12-09T19:54:34.844Z,98.59
2022-12-09T19:57:38.963Z,95.92
2022-12-09T20:00:43.496Z,97.56
2022-12-09T20:03:50.074Z,98.36
2022-12-09T20:06:54.185Z,97.30
2022-12-09T20:09:59.886Z,97.14
2022-12-09T20:13:04.294Z,97.23
2022-12-09T20:16:10.152Z,96.79
2022-12-09T20:19:14.346Z,95.19
2022-12-09T20:22:18.753Z,96.13
2022-12-09T20:25:24.355Z,94.92
2022-12-09T20:28:28.622Z,95.59
2022-12-09T20:31:34.446Z,95.12
2022-12-09T20:34:39.117Z,94.26
2022-12-09T20:37:44.319Z,93.57
2022-12-09T20:40:50.186Z,93.63
2022-12-09T20:43:56.729Z,94.37
2022-12-09T20:47:00.812Z,94.51
2022-12-09T20:50:05.820Z,93.82
2022-12-09T20:53:10.263Z,93.55
2022-12-09T20:56:16.655Z,94.15
2022-12-09T20:59:20.884Z,94.73
2022-12-09T21:02:25.048Z,94.16
2022-12-09T21:05:29.313Z,93.58
2022-12-09T21:08:33.845Z,94.11
2022-12-09T21:11:40.514Z,93.01
2022-12-09T21:14:44.627Z,93.58
2022-12-09T21:17:51.199Z,94.50
2022-12-09T21:20:57.881Z,93.78
2022-12-09T21:24:02.704Z,96.95
2022-12-09T21:27:08.346Z,96.24
2022-12-09T21:30:13.544Z,94.47
2022-12-09T21:33:17.714Z,96.61
2022-12-09T21:36:24.743Z,95.66
2022-12-09T21:39:29.712Z,94.55
2022-12-09T21:42:35.399Z,94.44
2022-12-09T21:45:39.583Z,94.13
2022-12-09T21:48:45.896Z,94.37
2022-12-09T21:51:52.180Z,96.17
2022-12-09T21:54:56.433Z,97.53
2022-12-09T21:58:02.204Z,97.67
2022-12-09T22:01:11.717Z,97.29
2022-12-09T22:04:17.784Z,98.83
2022-12-09T22:07:21.856Z,98.19
2022-12-09T22:10:26.895Z,97.56
2022-12-09T22:13:37.721Z,97.97
2022-12-09T22:16:46.279Z,99.21
2022-12-09T22:20:33.384Z,99.20
2022-12-09T22:23:14.997Z,98.90
2022-12-09T22:26:21.022Z,97.69
2022-12-09T22:29:27.730Z,97.12
2022-12-09T22:32:36.467Z,97.27
2022-12-09T22:35:44.353Z,97.39
2022-12-09T22:38:49.297Z,97.66
2022-12-09T22:41:53.585Z,98.42
2022-12-09T22:44:59.303Z,97.26
2022-12-09T22:48:03.696Z,99.00
2022-12-09T22:51:11.028Z,100.00
2022-12-09T22:54:15.709Z,99.55
2022-12-09T22:57:19.827Z,98.61
2022-12-09T23:00:25.703Z,97.83
2022-12-09T23:03:30.101Z,97.67
2022-12-09T23:06:36.813Z,99.17
2022-12-09T23:09:41.172Z,99.40
2022-12-09T23:12:45.327Z,98.42
2022-12-09T23:15:51.022Z,98.07
2022-12-09T23:18:57.353Z,97.34
2022-12-09T23:22:01.542Z,96.99
2022-12-09T23:25:07.814Z,96.77
2022-12-09T23:28:13.157Z,96.46
2022-12-09T23:31:21.135Z,97.33
2022-12-09T23:34:25.402Z,96.33
2022-12-09T23:37:29.674Z,98.06
2022-12-09T23:40:34.073Z,96.78
2022-12-09T23:43:40.037Z,96.92
2022-12-09T23:46:46.803Z,98.56
2022-12-09T23:49:51.023Z,98.70
2022-12-09T23:52:55.334Z,97.68
2022-12-09T23:55:59.493Z,97.60
2022-12-09T23:59:05.266Z,96.50
